createdAt,value
2018-04-25T00:00:17.787Z,88.87
2018-04-25T00:01:16.761Z,88.58
2018-04-25T00:02:22.579Z,88.58
2018-04-25T00:03:16.699Z,88.29
2018-04-25T00:08:55.002Z,88.29
2018-04-25T00:09:54.968Z,88.48
2018-04-25T00:10:54.937Z,88.77
2018-04-25T00:11:54.899Z,88.58
2018-04-25T00:12:54.883Z,88.77
2018-04-25T00:13:54.885Z,88.77
2018-04-25T00:14:55.881Z,88.48
2018-04-25T00:15:54.835Z,88.39
2018-04-25T00:16:54.781Z,88.77
2018-04-25T00:17:54.755Z,88.96
2018-04-25T00:18:54.722Z,89.25
2018-04-25T00:19:54.711Z,89.34
2018-04-25T00:20:54.700Z,89.44
2018-04-25T00:21:54.662Z,89.34
2018-04-25T00:22:54.650Z,89.44
2018-04-25T00:23:54.604Z,89.15
2018-04-25T00:24:54.595Z,89.82
2018-04-25T00:25:54.568Z,89.63
2018-04-25T00:26:54.554Z,89.82
2018-04-25T00:27:54.522Z,89.82
2018-04-25T00:28:54.501Z,89.82
2018-04-25T00:29:54.468Z,89.34
2018-04-25T00:30:54.442Z,89.63
2018-04-25T00:31:54.397Z,89.53
2018-04-25T00:32:54.379Z,89.92
2018-04-25T00:33:54.359Z,90.49
2018-04-25T00:34:54.337Z,90.20
2018-04-25T00:35:54.299Z,90.25
2018-04-25T00:36:54.278Z,90.25
2018-04-25T00:37:54.239Z,90.54
2018-04-25T00:38:54.225Z,90.25
2018-04-25T00:39:54.203Z,90.35
2018-04-25T00:40:54.170Z,90.35
2018-04-25T00:41:54.157Z,90.83
2018-04-25T00:42:54.216Z,90.54
2018-04-25T00:43:54.083Z,90.73
2018-04-25T00:44:54.093Z,90.83
2018-04-25T00:45:54.034Z,90.73
2018-04-25T00:46:54.036Z,90.64
2018-04-25T00:47:54.014Z,90.64
2018-04-25T00:48:53.980Z,90.54
2018-04-25T00:49:53.969Z,90.83
2018-04-25T00:50:53.930Z,91.50
2018-04-25T00:51:53.896Z,91.11
2018-04-25T00:52:53.878Z,91.30
2018-04-25T00:53:53.849Z,91.30
2018-04-25T00:54:54.820Z,90.54
2018-04-25T00:55:53.806Z,91.30
2018-04-25T00:56:53.760Z,91.30
2018-04-25T00:57:53.738Z,91.11
2018-04-25T00:58:53.710Z,91.30
2018-04-25T00:59:53.710Z,90.83
2018-04-25T01:00:53.664Z,91.50
2018-04-25T01:01:53.627Z,91.30
2018-04-25T01:02:53.600Z,91.02
2018-04-25T01:03:53.599Z,91.11
2018-04-25T01:04:53.565Z,91.21
2018-04-25T01:05:53.530Z,91.11
2018-04-25T01:06:53.513Z,91.02
2018-04-25T01:07:53.476Z,91.40
2018-04-25T01:08:53.467Z,91.50
2018-04-25T01:09:53.431Z,91.30
2018-04-25T01:10:53.398Z,91.59
2018-04-25T01:11:53.471Z,91.50
2018-04-25T01:12:53.363Z,91.30
2018-04-25T01:13:53.326Z,91.30
2018-04-25T01:14:53.301Z,91.30
2018-04-25T01:15:53.289Z,91.21
2018-04-25T01:16:53.264Z,91.54
2018-04-25T01:17:53.241Z,90.64
2018-04-25T01:18:53.197Z,90.68
2018-04-25T01:19:53.169Z,90.39
2018-04-25T01:20:54.139Z,90.30
2018-04-25T01:21:53.126Z,90.30
2018-04-25T01:22:53.114Z,89.92
2018-04-25T01:23:53.086Z,90.30
2018-04-25T01:24:53.065Z,89.73
2018-04-25T01:25:53.022Z,89.53
2018-04-25T01:26:53.007Z,89.63
2018-04-25T01:27:52.953Z,89.82
2018-04-25T01:28:52.952Z,89.63
2018-04-25T01:29:52.908Z,89.06
2018-04-25T01:30:52.894Z,88.96
2018-04-25T01:31:52.888Z,88.96
2018-04-25T01:32:52.863Z,88.58
2018-04-25T01:33:52.818Z,88.87
2018-04-25T01:34:52.804Z,88.68
2018-04-25T01:35:52.760Z,88.20
2018-04-25T01:36:52.731Z,88.10
2018-04-25T01:37:52.699Z,87.82
2018-04-25T01:38:52.699Z,87.82
2018-04-25T01:39:52.658Z,88.58
2018-04-25T01:40:52.634Z,87.91
2018-04-25T01:41:52.605Z,88.10
2018-04-25T01:42:52.583Z,87.72
2018-04-25T01:43:52.570Z,87.19
2018-04-25T01:44:52.549Z,87.34
2018-04-25T01:45:52.512Z,87.00
2018-04-25T01:46:52.472Z,86.71
2018-04-25T01:47:52.454Z,87.09
2018-04-25T01:48:52.415Z,86.43
2018-04-25T01:49:52.392Z,85.94
2018-04-25T01:50:52.372Z,86.33
2018-04-25T01:51:52.360Z,86.04
2018-04-25T01:52:52.323Z,85.94
2018-04-25T01:53:52.305Z,86.33
2018-04-25T01:54:52.277Z,85.75
2018-04-25T01:55:52.261Z,85.66
2018-04-25T01:56:53.223Z,85.66
2018-04-25T01:57:52.196Z,85.75
2018-04-25T01:58:52.174Z,85.75
2018-04-25T01:59:52.166Z,85.38
2018-04-25T02:00:52.130Z,84.80
2018-04-25T02:01:52.094Z,85.28
2018-04-25T02:02:52.063Z,84.70
2018-04-25T02:03:52.067Z,84.32
2018-04-25T02:04:52.013Z,84.61
2018-04-25T02:05:51.980Z,84.13
2018-04-25T02:06:51.982Z,84.32
2018-04-25T02:07:51.927Z,84.08
2018-04-25T02:08:51.921Z,83.56
2018-04-25T02:09:51.898Z,82.93
2018-04-25T02:10:51.871Z,82.26
2018-04-25T02:11:51.834Z,82.07
2018-04-25T02:12:51.818Z,82.07
2018-04-25T02:13:51.779Z,82.26
2018-04-25T02:14:51.761Z,82.07
2018-04-25T02:15:51.754Z,81.78
2018-04-25T02:16:51.716Z,81.30
2018-04-25T02:17:51.675Z,81.30
2018-04-25T02:18:51.711Z,81.11
2018-04-25T02:19:51.636Z,80.35
2018-04-25T02:20:51.638Z,79.91
2018-04-25T02:21:51.604Z,80.06
2018-04-25T02:22:52.580Z,79.72
2018-04-25T02:23:51.537Z,79.24
2018-04-25T02:24:53.519Z,79.43
2018-04-25T02:25:51.478Z,79.62
2018-04-25T02:26:51.483Z,79.05
2018-04-25T02:27:51.422Z,79.24
2018-04-25T02:28:53.418Z,79.05
2018-04-25T02:29:51.377Z,79.14
2018-04-25T02:30:53.360Z,79.05
2018-04-25T02:31:51.337Z,78.57
2018-04-25T02:33:07.244Z,79.24
2018-04-25T02:33:51.262Z,78.95
2018-04-25T02:34:51.240Z,78.86
2018-04-25T02:35:51.213Z,79.05
2018-04-25T02:36:52.199Z,79.62
2018-04-25T02:37:51.205Z,80.10
2018-04-25T02:39:01.737Z,80.77
2018-04-25T02:39:51.114Z,80.29
2018-04-25T02:40:55.751Z,80.19
2018-04-25T02:41:51.086Z,79.91
2018-04-25T02:42:51.071Z,80.19
2018-04-25T02:43:51.029Z,80.96
2018-04-25T02:45:01.751Z,80.10
2018-04-25T02:45:50.954Z,79.91
2018-04-25T02:46:50.927Z,80.10
2018-04-25T02:47:50.917Z,80.10
2018-04-25T02:48:52.903Z,80.19
2018-04-25T02:49:50.863Z,79.91
2018-04-25T02:50:51.829Z,79.52
2018-04-25T02:51:50.812Z,79.52
2018-04-25T02:52:50.821Z,80.38
2018-04-25T02:53:50.748Z,80.19
2018-04-25T02:54:51.740Z,79.91
2018-04-25T02:55:50.695Z,80.19
2018-04-25T02:56:50.681Z,80.19
2018-04-25T02:57:50.653Z,80.19
2018-04-25T02:58:50.671Z,79.72
2018-04-25T02:59:50.599Z,79.72
2018-04-25T03:00:50.578Z,79.62
2018-04-25T03:01:50.545Z,79.91
2018-04-25T03:02:51.530Z,79.91
2018-04-25T03:03:50.488Z,79.52
2018-04-25T03:04:50.491Z,80.10
2018-04-25T03:05:50.466Z,79.62
2018-04-25T03:06:50.437Z,79.33
2018-04-25T03:07:50.394Z,79.43
2018-04-25T03:08:50.372Z,79.43
2018-04-25T03:09:50.348Z,79.05
2018-04-25T03:10:50.355Z,79.43
2018-04-25T03:11:50.281Z,79.62
2018-04-25T03:12:50.288Z,79.62
2018-04-25T03:13:50.230Z,79.91
2018-04-25T03:14:50.218Z,80.29
2018-04-25T03:15:50.209Z,80.29
2018-04-25T03:16:50.227Z,79.81
2018-04-25T03:17:50.144Z,80.10
2018-04-25T03:18:50.126Z,79.81
2018-04-25T03:19:50.096Z,80.00
2018-04-25T03:20:50.068Z,80.38
2018-04-25T03:21:50.038Z,80.00
2018-04-25T03:22:50.031Z,80.19
2018-04-25T03:23:50.029Z,80.00
2018-04-25T03:25:13.762Z,80.48
2018-04-25T03:25:49.953Z,80.29
2018-04-25T03:26:49.940Z,80.67
2018-04-25T05:02:45.238Z,77.48
2018-04-25T05:03:43.282Z,77.86
2018-04-25T05:04:43.273Z,77.95
2018-04-25T05:05:43.235Z,78.72
2018-04-25T05:06:43.218Z,79.00
2018-04-25T05:07:43.182Z,79.58
2018-04-25T05:08:43.257Z,79.58
2018-04-25T05:09:43.132Z,79.10
2018-04-25T05:10:43.122Z,79.20
2018-04-25T05:11:43.089Z,79.00
2018-04-25T05:12:43.070Z,79.39
2018-04-25T05:13:43.069Z,79.49
2018-04-25T05:14:43.009Z,79.68
2018-04-25T05:15:42.985Z,80.16
2018-04-25T05:16:42.977Z,80.21
2018-04-25T05:17:42.924Z,80.73
2018-04-25T05:18:42.891Z,80.88
2018-04-25T05:19:42.903Z,80.79
2018-04-25T05:20:42.848Z,80.88
2018-04-25T05:21:42.833Z,81.36
2018-04-25T05:22:42.798Z,81.45
2018-04-25T05:23:42.776Z,81.93
2018-04-25T05:24:42.773Z,82.45
2018-04-25T05:25:42.738Z,82.22
2018-04-25T05:26:42.710Z,82.51
2018-04-25T05:27:42.680Z,82.89
2018-04-25T05:28:42.661Z,82.22
2018-04-25T05:29:42.624Z,82.98
2018-04-25T05:30:42.596Z,82.98
2018-04-25T05:31:42.635Z,83.37
2018-04-25T05:32:42.555Z,83.27
2018-04-25T05:33:42.596Z,82.89
2018-04-25T05:34:42.521Z,82.60
2018-04-25T05:35:42.579Z,83.17
2018-04-25T05:36:42.434Z,83.08
2018-04-25T05:37:42.477Z,83.27
2018-04-25T05:38:42.435Z,83.17
2018-04-25T05:39:42.487Z,83.37
2018-04-25T05:40:42.353Z,83.65
2018-04-25T05:41:42.397Z,84.03
2018-04-25T05:42:42.367Z,84.99
2018-04-25T05:43:42.325Z,86.29
2018-04-25T05:44:42.267Z,87.72
2018-04-25T05:45:42.205Z,89.15
2018-04-25T05:46:42.240Z,90.30
2018-04-25T05:47:42.151Z,91.45
2018-04-25T05:48:42.274Z,93.21
2018-04-25T05:49:42.128Z,94.36
2018-04-25T05:50:43.180Z,94.93
2018-04-25T05:51:42.160Z,95.70
2018-04-25T05:52:42.063Z,96.61
2018-04-25T05:53:42.020Z,96.32
2018-04-25T05:54:42.106Z,97.27
2018-04-25T05:55:41.946Z,97.75
2018-04-25T05:56:41.984Z,98.52
2018-04-25T05:57:41.928Z,98.32
2018-04-25T05:58:41.931Z,98.42
2018-04-25T05:59:41.869Z,98.56
2018-04-25T06:00:41.857Z,98.85
2018-04-25T06:01:41.775Z,99.13
2018-04-25T06:02:41.843Z,99.04
2018-04-25T06:03:41.728Z,99.52
2018-04-25T06:04:41.786Z,99.52
2018-04-25T06:05:41.690Z,99.99
2018-04-25T06:06:41.763Z,99.99
2018-04-25T06:07:41.656Z,99.99
2018-04-25T06:09:14.225Z,99.99
2018-04-25T06:09:41.581Z,99.99
2018-04-25T06:10:41.557Z,99.99
2018-04-25T06:11:54.276Z,99.99
2018-04-25T06:12:41.506Z,99.99
2018-04-25T06:13:47.220Z,99.99
2018-04-25T06:14:41.467Z,99.99
2018-04-25T06:15:47.250Z,99.99
2018-04-25T06:16:41.419Z,99.99
2018-04-25T06:17:57.307Z,99.99
2018-04-25T06:18:41.369Z,99.99
2018-04-25T06:19:41.446Z,99.99
2018-04-25T06:20:41.353Z,99.99
2018-04-25T06:21:52.311Z,99.99
2018-04-25T06:22:41.252Z,99.99
2018-04-25T06:23:41.271Z,99.99
2018-04-25T06:24:41.204Z,99.99
2018-04-25T06:26:02.253Z,99.90
2018-04-25T06:26:41.155Z,99.37
2018-04-25T06:27:43.249Z,98.61
2018-04-25T06:28:41.119Z,98.90
2018-04-25T06:29:41.185Z,98.80
2018-04-25T06:30:41.098Z,98.61
2018-04-25T06:31:41.015Z,97.47
2018-04-25T06:32:41.010Z,97.47
2018-04-25T06:33:45.720Z,96.70
2018-04-25T06:34:40.976Z,96.98
2018-04-25T06:35:45.734Z,96.80
2018-04-25T06:36:40.913Z,97.08
2018-04-25T06:37:41.977Z,97.27
2018-04-25T06:38:40.826Z,97.08
2018-04-25T06:39:41.867Z,96.61
2018-04-25T06:40:40.786Z,96.80
2018-04-25T06:41:41.799Z,95.94
2018-04-25T06:42:40.749Z,96.61
2018-04-25T06:43:52.761Z,96.70
2018-04-25T06:44:40.701Z,96.22
2018-04-25T06:45:41.723Z,95.94
2018-04-25T06:46:40.658Z,95.98
2018-04-25T06:47:40.713Z,95.79
2018-04-25T06:48:40.595Z,95.51
2018-04-25T06:49:40.622Z,95.03
2018-04-25T06:50:40.606Z,95.03
2018-04-25T06:51:40.589Z,94.93
2018-04-25T06:52:40.473Z,95.22
2018-04-25T06:53:40.479Z,95.32
2018-04-25T06:54:40.538Z,95.03
2018-04-25T06:55:40.417Z,94.27
2018-04-25T06:56:40.496Z,94.36
2018-04-25T06:57:40.359Z,95.32
2018-04-25T06:59:02.324Z,94.74
2018-04-25T06:59:40.310Z,94.46
2018-04-25T07:00:40.288Z,93.98
2018-04-25T07:01:40.328Z,94.27
2018-04-25T07:02:40.221Z,94.27
2018-04-25T07:03:41.833Z,95.03
2018-04-25T07:04:41.217Z,94.84
2018-04-25T07:05:40.151Z,94.84
2018-04-25T07:06:40.226Z,94.17
2018-04-25T07:07:40.084Z,94.07
2018-04-25T07:08:44.746Z,92.93
2018-04-25T07:09:40.024Z,91.69
2018-04-25T07:10:40.022Z,91.88
2018-04-25T07:11:40.017Z,92.26
2018-04-25T07:12:40.961Z,91.16
2018-04-25T07:13:39.934Z,91.06
2018-04-25T07:14:39.991Z,90.39
2018-04-25T07:15:45.849Z,90.20
2018-04-25T07:16:39.860Z,90.11
2018-04-25T07:17:39.874Z,90.88
2018-04-25T07:18:39.850Z,90.39
2018-04-25T07:19:39.791Z,89.73
2018-04-25T07:20:39.773Z,90.49
2018-04-25T07:21:39.805Z,90.68
2018-04-25T07:22:39.712Z,90.49
2018-04-25T07:23:40.735Z,91.06
2018-04-25T07:24:39.653Z,90.01
2018-04-25T07:25:40.675Z,88.20
2018-04-25T07:26:39.612Z,88.87
2018-04-25T07:27:39.633Z,88.10
2018-04-25T07:28:39.533Z,87.62
2018-04-25T07:29:39.552Z,87.62
2018-04-25T07:30:39.508Z,88.29
2018-04-25T07:31:40.460Z,88.77
2018-04-25T07:32:39.444Z,88.39
2018-04-25T07:33:39.455Z,89.44
2018-04-25T07:34:39.389Z,87.15
2018-04-25T07:36:12.303Z,86.38
2018-04-25T07:36:39.345Z,85.81
2018-04-25T07:37:54.305Z,85.71
2018-04-25T07:38:39.293Z,84.47
2018-04-25T08:03:42.515Z,81.93
2018-04-25T08:04:10.605Z,82.79
2018-04-25T08:36:15.693Z,77.00
2018-04-25T08:37:12.932Z,76.96
2018-04-25T08:38:12.636Z,78.05
2018-04-25T08:39:19.315Z,77.19
2018-04-25T08:40:12.644Z,76.23
2018-04-25T08:45:12.841Z,76.45
2018-04-25T08:46:08.952Z,75.10
2018-04-25T08:46:52.957Z,74.91
2018-04-25T08:48:13.915Z,74.91
2018-04-25T08:48:52.867Z,74.91
2018-04-25T08:49:52.906Z,75.78
2018-04-25T08:50:52.817Z,72.05
2018-04-25T08:51:52.818Z,71.86
2018-04-25T08:52:52.786Z,72.14
2018-04-25T08:53:52.755Z,73.19
2018-04-25T08:54:52.740Z,71.95
2018-04-25T08:55:52.759Z,71.38
2018-04-25T08:56:52.705Z,71.86
2018-04-25T08:57:53.695Z,71.86
2018-04-25T08:58:52.636Z,71.95
2018-04-25T08:59:52.613Z,71.76
2018-04-25T09:00:53.597Z,71.47
2018-04-25T09:01:52.546Z,71.95
2018-04-25T09:02:53.631Z,70.90
2018-04-25T09:03:52.525Z,70.90
2018-04-25T09:04:52.511Z,69.89
2018-04-25T09:05:52.534Z,69.50
2018-04-25T09:06:52.504Z,68.41
2018-04-25T09:07:52.399Z,68.55
2018-04-25T09:08:53.459Z,68.26
2018-04-25T09:09:52.376Z,68.26
2018-04-25T09:10:52.334Z,68.07
2018-04-25T09:11:52.385Z,67.11
2018-04-25T09:12:52.272Z,67.43
2018-04-25T09:13:53.316Z,66.28
2018-04-25T09:14:52.232Z,65.61
2018-04-25T09:15:56.900Z,65.77
2018-04-25T09:16:52.152Z,66.25
2018-04-25T09:17:52.157Z,66.06
2018-04-25T09:18:52.134Z,65.97
2018-04-25T09:19:53.101Z,66.16
2018-04-25T09:20:52.050Z,66.16
2018-04-25T09:21:52.074Z,66.35
2018-04-25T09:22:52.044Z,66.44
2018-04-25T09:23:54.068Z,67.11
2018-04-25T09:24:51.954Z,66.73
2018-04-25T09:25:52.006Z,66.60
2018-04-25T09:26:53.980Z,67.75
2018-04-25T09:27:51.875Z,67.65
2018-04-25T09:28:51.866Z,67.55
2018-04-25T09:29:51.812Z,67.49
2018-04-25T09:30:51.811Z,67.46
2018-04-25T09:31:51.767Z,67.11
2018-04-25T09:32:51.739Z,66.63
2018-04-25T09:33:51.743Z,66.63
2018-04-25T09:34:51.703Z,66.73
2018-04-25T09:35:56.398Z,67.21
2018-04-25T09:36:51.639Z,66.06
2018-04-25T09:37:51.671Z,66.25
2018-04-25T09:38:51.598Z,66.16
2018-04-25T09:39:51.596Z,65.58
2018-04-25T09:40:51.543Z,65.81
2018-04-25T09:41:51.536Z,64.91
2018-04-25T09:42:51.496Z,65.61
2018-04-25T09:43:51.470Z,64.85
2018-04-25T09:44:51.459Z,63.80
2018-04-25T09:45:51.450Z,64.66
2018-04-25T09:46:51.440Z,62.94
2018-04-25T09:47:51.391Z,61.22
2018-04-25T09:48:51.345Z,61.60
2018-04-25T09:49:51.312Z,61.22
2018-04-25T09:50:51.306Z,60.45
2018-04-25T09:51:51.369Z,61.41
2018-04-25T09:52:51.292Z,61.41
2018-04-25T09:53:51.267Z,62.11
2018-04-25T09:54:51.279Z,61.63
2018-04-25T09:55:51.190Z,61.25
2018-04-25T09:56:51.144Z,61.54
2018-04-25T09:57:51.173Z,60.93
2018-04-25T09:58:51.087Z,61.31
2018-04-25T09:59:51.061Z,62.27
2018-04-25T10:00:51.070Z,62.55
2018-04-25T10:01:51.037Z,61.22
2018-04-25T10:02:51.053Z,62.37
2018-04-25T10:03:51.018Z,62.27
2018-04-25T10:04:51.063Z,62.17
2018-04-25T10:05:50.927Z,63.13
2018-04-25T10:06:50.969Z,62.65
2018-04-25T10:07:50.883Z,63.51
2018-04-25T10:08:51.927Z,64.09
2018-04-25T10:09:50.844Z,62.74
2018-04-25T10:10:51.958Z,62.27
2018-04-25T10:11:50.785Z,62.37
2018-04-25T10:12:50.810Z,63.39
2018-04-25T10:13:50.715Z,62.90
2018-04-25T10:14:50.701Z,63.76
2018-04-25T10:15:50.664Z,63.86
2018-04-25T10:16:50.688Z,64.43
2018-04-25T10:17:51.780Z,64.82
2018-04-25T10:18:50.592Z,64.25
2018-04-25T10:19:50.574Z,63.76
2018-04-25T10:20:50.666Z,63.48
2018-04-25T10:21:50.558Z,63.57
2018-04-25T10:22:50.571Z,63.00
2018-04-25T10:23:50.466Z,63.00
2018-04-25T10:24:50.464Z,63.10
2018-04-25T10:25:50.434Z,63.57
2018-04-25T10:26:50.489Z,63.96
2018-04-25T10:27:50.409Z,64.91
2018-04-25T10:28:50.431Z,65.30
2018-04-25T10:29:50.336Z,64.85
2018-04-25T10:30:50.352Z,64.18
2018-04-25T10:31:50.254Z,64.62
2018-04-25T10:32:50.389Z,64.95
2018-04-25T10:33:50.206Z,64.47
2018-04-25T10:34:50.284Z,62.94
2018-04-25T10:35:50.185Z,62.08
2018-04-25T10:37:22.845Z,62.27
2018-04-25T10:37:50.118Z,63.42
2018-04-25T10:38:50.109Z,62.37
2018-04-25T10:40:17.887Z,62.37
2018-04-25T10:40:50.033Z,62.55
2018-04-25T10:41:50.126Z,63.32
2018-04-25T10:42:50.010Z,62.65
2018-04-25T10:44:25.864Z,62.74
2018-04-25T10:44:49.949Z,61.28
2018-04-25T10:45:49.916Z,62.43
2018-04-25T10:47:15.860Z,62.65
2018-04-25T10:47:49.850Z,62.94
2018-04-25T10:49:18.050Z,62.55
2018-04-25T10:49:49.880Z,62.84
2018-04-25T10:50:49.783Z,62.94
2018-04-25T10:51:49.894Z,62.27
2018-04-25T10:52:49.749Z,62.46
2018-04-25T10:54:25.395Z,61.22
2018-04-25T10:54:49.698Z,61.41
2018-04-25T10:55:49.728Z,60.06
2018-04-25T10:57:11.754Z,59.97
2018-04-25T10:57:49.627Z,60.93
2018-04-25T10:58:49.680Z,61.12
2018-04-25T10:59:49.557Z,60.55
2018-04-25T11:00:49.530Z,61.38
2018-04-25T11:01:49.561Z,61.28
2018-04-25T11:02:49.536Z,61.98
2018-04-25T11:03:49.473Z,62.37
2018-04-25T11:04:49.472Z,62.37
2018-04-25T11:05:49.475Z,61.41
2018-04-25T11:06:49.388Z,61.41
2018-04-25T11:07:49.410Z,61.88
2018-04-25T11:08:49.373Z,62.37
2018-04-25T11:09:49.326Z,62.27
2018-04-25T11:10:49.309Z,62.46
2018-04-25T11:11:49.281Z,62.74
2018-04-25T11:12:49.243Z,62.94
2018-04-25T11:13:49.263Z,63.70
2018-04-25T11:14:49.170Z,63.70
2018-04-25T11:15:49.176Z,63.51
2018-04-25T11:16:49.135Z,64.37
2018-04-25T11:17:49.114Z,64.75
2018-04-25T11:18:49.123Z,65.33
2018-04-25T11:19:49.047Z,64.37
2018-04-25T11:20:50.062Z,64.18
2018-04-25T11:21:49.037Z,63.99
2018-04-25T11:22:48.982Z,64.18
2018-04-25T11:23:48.950Z,64.66
2018-04-25T11:24:48.956Z,65.61
2018-04-25T11:25:48.892Z,64.47
2018-04-25T11:26:48.902Z,64.18
2018-04-25T11:27:49.312Z,64.56
2018-04-25T11:28:48.822Z,64.75
2018-04-25T11:29:48.818Z,63.89
2018-04-25T11:30:48.759Z,63.51
2018-04-25T11:31:48.977Z,62.68
2018-04-25T11:32:48.735Z,62.37
2018-04-25T11:33:49.850Z,62.55
2018-04-25T11:34:48.680Z,62.94
2018-04-25T11:35:48.639Z,63.70
2018-04-25T11:36:48.716Z,63.80
2018-04-25T11:37:48.596Z,63.99
2018-04-25T11:38:49.665Z,64.18
2018-04-25T11:39:48.570Z,63.13
2018-04-25T11:40:48.518Z,62.27
2018-04-25T11:41:48.736Z,62.87
2018-04-25T11:42:48.528Z,63.06
2018-04-25T11:43:48.597Z,62.40
2018-04-25T11:44:48.446Z,62.65
2018-04-25T11:45:48.410Z,62.01
2018-04-25T11:46:48.390Z,62.40
2018-04-25T11:47:49.579Z,62.71
2018-04-25T11:48:48.331Z,61.21
2018-04-25T11:49:48.381Z,60.35
2018-04-25T11:50:48.261Z,61.11
2018-04-25T11:51:48.268Z,59.97
2018-04-25T11:52:48.239Z,58.91
2018-04-25T11:53:48.487Z,59.17
2018-04-25T11:54:48.173Z,59.94
2018-04-25T11:55:48.162Z,59.45
2018-04-25T11:56:48.109Z,59.91
2018-04-25T11:57:48.267Z,60.58
2018-04-25T11:58:48.055Z,60.10
2018-04-25T11:59:48.171Z,61.05
2018-04-25T12:00:48.038Z,60.93
2018-04-25T12:01:48.164Z,61.41
2018-04-25T12:02:48.035Z,62.37
2018-04-25T12:03:49.113Z,62.37
2018-04-25T12:04:47.917Z,63.00
2018-04-25T12:05:47.986Z,64.05
2018-04-25T12:06:47.921Z,64.15
2018-04-25T12:07:47.900Z,64.34
2018-04-25T12:08:47.803Z,64.05
2018-04-25T12:09:47.785Z,64.82
2018-04-25T12:10:47.829Z,64.62
2018-04-25T12:11:47.726Z,64.72
2018-04-25T12:12:47.752Z,64.43
2018-04-25T12:13:47.697Z,65.58
2018-04-25T12:14:47.756Z,64.43
2018-04-25T12:15:47.652Z,63.51
2018-04-25T12:16:47.666Z,62.08
2018-04-25T12:17:47.616Z,62.24
2018-04-25T12:18:47.643Z,62.90
2018-04-25T12:19:47.526Z,62.71
2018-04-25T12:20:47.581Z,63.10
2018-04-25T12:21:47.481Z,63.99
2018-04-25T12:22:47.496Z,63.03
2018-04-25T12:23:47.429Z,63.76
2018-04-25T12:24:47.538Z,64.18
2018-04-25T12:25:47.395Z,63.42
2018-04-25T12:26:47.415Z,64.05
2018-04-25T12:27:47.327Z,63.67
2018-04-25T12:28:47.297Z,64.53
2018-04-25T12:29:47.364Z,65.11
2018-04-25T12:30:47.290Z,64.34
2018-04-25T12:31:47.252Z,64.82
2018-04-25T12:32:47.209Z,65.01
2018-04-25T12:33:47.184Z,64.91
2018-04-25T12:34:47.160Z,65.58
2018-04-25T12:35:47.185Z,64.85
2018-04-25T12:36:47.195Z,65.04
2018-04-25T12:37:47.097Z,63.89
2018-04-25T12:38:47.093Z,64.28
2018-04-25T12:39:47.037Z,64.09
2018-04-25T12:40:47.113Z,64.56
2018-04-25T12:41:46.975Z,64.47
2018-04-25T12:42:47.050Z,63.89
2018-04-25T12:43:47.221Z,64.18
2018-04-25T12:44:47.032Z,64.37
2018-04-25T12:45:46.925Z,62.94
2018-04-25T12:46:46.861Z,63.42
2018-04-25T12:47:46.842Z,64.05
2018-04-25T12:48:46.828Z,64.09
2018-04-25T12:49:46.778Z,62.94
2018-04-25T12:50:46.777Z,62.94
2018-04-25T12:51:46.732Z,63.23
2018-04-25T12:52:46.771Z,63.29
2018-04-25T12:53:46.674Z,62.90
2018-04-25T12:54:47.438Z,62.55
2018-04-25T12:55:46.636Z,62.55
2018-04-25T12:56:46.607Z,63.23
2018-04-25T12:57:46.601Z,62.94
2018-04-25T12:58:46.616Z,62.46
2018-04-25T12:59:46.523Z,61.79
2018-04-25T13:00:46.550Z,61.79
2018-04-25T13:01:46.550Z,62.84
2018-04-25T13:02:46.536Z,63.83
2018-04-25T13:03:46.533Z,62.01
2018-04-25T13:04:47.489Z,62.20
2018-04-25T13:05:46.400Z,62.20
2018-04-25T13:06:46.369Z,61.60
2018-04-25T13:07:46.337Z,61.98
2018-04-25T13:08:46.376Z,62.74
2018-04-25T13:09:46.280Z,62.08
2018-04-25T13:10:47.350Z,63.32
2018-04-25T13:11:46.251Z,62.84
2018-04-25T13:12:46.306Z,61.98
2018-04-25T13:13:46.149Z,61.88
2018-04-25T13:14:46.277Z,62.33
2018-04-25T13:15:46.124Z,62.90
2018-04-25T13:16:47.176Z,62.94
2018-04-25T13:17:46.060Z,62.14
2018-04-25T13:19:23.935Z,62.43
2018-04-25T13:19:46.021Z,62.90
2018-04-25T13:20:46.014Z,63.48
2018-04-25T13:21:47.051Z,62.90
2018-04-25T13:22:45.936Z,63.39
2018-04-25T13:23:56.899Z,63.10
2018-04-25T13:24:45.895Z,63.39
2018-04-25T13:25:50.444Z,63.86
2018-04-25T13:26:45.915Z,63.39
2018-04-25T13:27:47.892Z,63.39
2018-04-25T13:28:45.786Z,63.19
2018-04-25T13:29:51.492Z,64.34
2018-04-25T13:30:45.775Z,63.29
2018-04-25T13:32:13.429Z,63.00
2018-04-25T13:32:45.699Z,63.51
2018-04-25T13:33:45.788Z,62.94
2018-04-25T13:34:45.649Z,62.55
2018-04-25T13:35:57.441Z,62.17
2018-04-25T13:36:45.665Z,62.08
2018-04-25T13:37:50.495Z,62.17
2018-04-25T13:38:45.532Z,62.37
2018-04-25T13:39:51.461Z,62.37
2018-04-25T13:40:45.509Z,62.08
2018-04-25T14:50:08.192Z,57.01
2018-04-25T14:51:23.871Z,57.48
2018-04-25T14:52:08.066Z,58.06
2018-04-25T14:53:08.095Z,58.83
2018-04-25T14:54:08.108Z,58.70
2018-04-25T14:55:08.074Z,58.98
2018-04-25T14:56:07.977Z,58.89
2018-04-25T14:57:09.047Z,58.83
2018-04-25T14:58:07.970Z,59.20
2018-04-25T14:59:08.936Z,58.41
2018-04-25T15:00:07.864Z,58.89
2018-04-25T15:01:07.949Z,58.92
2018-04-25T15:02:07.849Z,58.73
2018-04-25T15:03:07.840Z,60.16
2018-04-25T15:04:07.765Z,58.09
2018-04-25T15:05:07.865Z,56.46
2018-04-25T15:06:07.761Z,57.04
2018-04-25T15:07:08.795Z,57.77
2018-04-25T15:08:07.659Z,58.34
2018-04-25T15:09:19.357Z,58.54
2018-04-25T15:10:07.632Z,58.54
2018-04-25T15:11:14.383Z,58.73
2018-04-25T15:12:07.601Z,58.28
2018-04-25T15:13:07.603Z,57.80
2018-04-25T15:14:07.532Z,57.61
2018-04-25T15:15:12.327Z,57.23
2018-04-25T15:16:07.462Z,57.32
2018-04-25T15:17:07.593Z,58.18
2018-04-25T15:18:07.424Z,59.33
2018-04-25T15:19:07.465Z,58.28
2018-04-25T15:20:07.428Z,57.61
2018-04-25T15:21:07.440Z,56.27
2018-04-25T15:22:07.343Z,57.04
2018-04-25T15:23:07.299Z,56.34
2018-04-25T15:24:07.382Z,57.61
2018-04-25T15:25:07.337Z,56.72
2018-04-25T15:26:08.277Z,56.75
2018-04-25T15:27:07.209Z,56.75
2018-04-25T15:28:07.251Z,56.56
2018-04-25T15:29:07.159Z,56.37
2018-04-25T15:30:07.131Z,57.42
2018-04-25T15:31:07.143Z,57.32
2018-04-25T15:35:38.860Z,57.77
2018-04-25T15:36:29.287Z,58.15
2018-04-25T15:37:28.760Z,58.83
2018-04-25T15:38:27.464Z,59.01
2018-04-25T15:39:27.524Z,59.20
2018-04-25T15:40:27.366Z,59.49
2018-04-25T15:41:30.289Z,59.47
2018-04-25T15:42:27.409Z,59.84
2018-04-25T15:43:27.290Z,60.04
2018-04-25T15:44:28.357Z,59.84
2018-04-25T15:45:27.251Z,59.75
2018-04-25T15:46:27.255Z,59.56
2018-04-25T15:47:27.205Z,60.13
2018-04-25T15:48:38.929Z,59.56
2018-04-25T15:49:27.141Z,60.23
2018-04-25T15:50:31.872Z,61.19
2018-04-25T15:51:27.100Z,60.61
2018-04-25T15:52:42.851Z,60.80
2018-04-25T15:53:27.082Z,60.99
2018-04-25T15:54:29.175Z,60.16
2018-04-25T15:55:27.011Z,60.42
2018-04-25T15:56:42.917Z,60.52
2018-04-25T15:57:26.944Z,59.97
2018-04-25T15:58:32.867Z,60.13
2018-04-25T15:59:26.972Z,60.04
2018-04-25T16:00:31.868Z,60.23
2018-04-25T16:01:26.881Z,60.04
2018-04-25T16:02:28.924Z,60.26
2018-04-25T16:03:26.803Z,59.94
2018-04-25T16:04:28.902Z,61.31
2018-04-25T16:05:26.770Z,61.31
2018-04-25T16:06:28.836Z,60.45
2018-04-25T16:07:26.728Z,60.45
2018-04-25T16:08:28.721Z,59.78
2018-04-25T16:09:26.650Z,60.26
2018-04-25T16:10:39.394Z,60.45
2018-04-25T16:11:26.591Z,59.88
2018-04-25T16:12:37.337Z,59.78
2018-04-25T16:13:26.550Z,60.06
2018-04-25T16:14:37.350Z,59.59
2018-04-25T16:15:26.509Z,59.20
2018-04-25T16:16:28.577Z,59.40
2018-04-25T16:17:26.434Z,59.69
2018-04-25T16:18:32.396Z,59.97
2018-04-25T16:19:26.406Z,59.59
2018-04-25T16:20:28.399Z,60.06
2018-04-25T16:21:26.337Z,60.45
2018-04-25T16:22:42.021Z,59.11
2018-04-25T16:23:26.317Z,58.63
2018-04-25T16:42:44.868Z,56.98
2018-04-25T16:43:49.316Z,56.31
2018-04-25T16:44:44.764Z,56.98
2018-04-25T16:45:51.411Z,56.69
2018-04-25T16:46:44.709Z,56.38
2018-04-25T16:47:44.738Z,56.85
2018-04-25T16:48:44.628Z,56.57
2018-04-25T17:01:23.266Z,62.11
2018-04-25T17:02:23.094Z,61.92
2018-04-25T17:04:28.271Z,60.23
2018-04-25T17:06:54.774Z,60.90
2018-04-25T17:07:54.783Z,61.35
2018-04-25T17:08:54.741Z,60.87
2018-04-25T17:10:07.691Z,60.68
2018-04-25T17:10:54.697Z,61.16
2018-04-25T17:12:01.194Z,62.11
2018-04-25T17:12:54.621Z,62.11
2018-04-25T17:14:01.308Z,62.59